Boca Grande, FL

11:40 AM EST on November 21, 2014 (GMT -0500)
Gasparilla Marina | Change Station
CLOSE
Current Station
Personal Weather Station
Location: Placida, FL
Elevation: 0 ft
Nearby Weather Stations

Elev 0 ft 26.83 °N, 82.26 °W | Updated 8 minutes ago

Overcast
Overcast
70.0 °F
Feels Like 70.0 °F
N
3.7
Wind Variable Wind from NNE

Today
High -- | Low -- °F
--% Chance of Precip.
Yesterday
High -- | Low -- °F
Precip. -- in
6:53 AM 5:36 PM
Waning Crescent, 1% visible
Pressure 30.25 in
Visibility 10.0 miles
Clouds Overcast 7500 ft
Dew Point 60 °F
Humidity 71%
Rainfall 0.00 in
Snow Depth Not available.
UV 2 out of 12
Pollen 4.30 out of 12
Air Quality Not available.
Flu Activity Not available.
METAR KPGD 211553Z 06016KT 10SM OVC075 22/14 A3024 RMK AO2 SLP241 T02170139

More Conditions Fewer Conditions

Pressure 30.25 in
Visibility 10.0 miles
Clouds Overcast 7500 ft
Dew Point 60 °F
Humidity 71%
Rainfall 0.00 in
Snow Depth Not available.
UV 2 out of 12
Pollen 4.30 out of 12
Air Quality Not available.
Flu Activity Not available.
METAR KPGD 211553Z 06016KT 10SM OVC075 22/14 A3024 RMK AO2 SLP241 T02170139

More Conditions Fewer Conditions

10-Day Weather Forecast

Almanac

Astronomy

Nov. 21, 2014 Rise Set
Actual Time
Civil Twilight
Nautical Twilight
Astronomical Twilight
Moon
Length of Visible Light
Length of Day
Tomorrow will be .
, % of the Moon is Illuminated

Today's Extremes

State Highs State Lows

Community

WunderPhotos

Upload Photos

1,772,687 photos uploaded!

WunderBlogs® & News

Nearby

Air Quality

  Air Quality AQ Index Pollutant
Not available.

Snow Depth

Station Depth Elevation

Earthquake Activity

City Distance Mag. Time & Date
Minimum magnitude displayed is 2.5.

Coastal Water Temperatures

Place Temperature

Nearby Weather Stations